This is the latest recevied weather packets stored in our database for station/object WX7FGZ-7. If no packets are shown the sender has not sent any weather packets the latest 10 day(s).
| Time | Temp. | Humidity | Pressure | Rain* | Wind** | Luminosity | Snow |
|---|---|---|---|---|---|---|---|
| 1777990578 | 12.22° C | 46% | 1013.8 hPa | 0 mm | - | - | - |
| 1777989849 | 11.11° C | 46% | 1013.6 hPa | 0 mm | - | - | - |
| 1777989673 | 11.11° C | 46% | 1013.6 hPa | 0 mm | - | - | - |
| 1777989218 | 10.56° C | 47% | 1013.5 hPa | 0 mm | - | - | - |
| 1777989075 | 10.56° C | 47% | 1013.5 hPa | 0 mm | - | - | - |
| 1777988973 | 10° C | 49% | 1013.4 hPa | 0 mm | - | - | - |
| 1777988846 | 10° C | 49% | 1013.4 hPa | 0 mm | - | - | - |
| 1777988773 | 10° C | 49% | 1013.4 hPa | 0 mm | - | - | - |
| 1777988022 | 8.89° C | 51% | 1013.4 hPa | 0 mm | - | - | - |
| 1777987889 | 8.89° C | 51% | 1013.4 hPa | 0 mm | - | - | - |
| 1777987220 | 7.78° C | 53% | 1013.3 hPa | 0 mm | - | - | - |
| 1777986992 | 7.78° C | 53% | 1013.3 hPa | 0 mm | - | - | - |
| 1777986638 | 7.78° C | 52% | 1013.2 hPa | 0 mm | - | - | - |
| 1777986395 | 7.78° C | 52% | 1013.2 hPa | 0 mm | - | - | - |
| 1777985717 | 7.78° C | 53% | 1013.2 hPa | 0 mm | - | - | - |
| 1777985489 | 7.78° C | 53% | 1013.2 hPa | 0 mm | - | - | - |
| 1777985400 | 7.22° C | 53% | 1013.2 hPa | 0 mm | - | - | - |
| 1777985196 | 7.22° C | 53% | 1013.2 hPa | 0 mm | - | - | - |
| 1777984149 | 7.22° C | 53% | 1013.4 hPa | 0 mm | - | - | - |
| 1777983989 | 7.22° C | 53% | 1013.4 hPa | 0 mm | - | - | - |
| 1777983706 | 7.22° C | 54% | 1013.4 hPa | 0 mm | - | - | - |
| 1777983590 | 7.22° C | 54% | 1013.4 hPa | 0 mm | - | - | - |
| 1777983420 | 7.22° C | 54% | 1013.4 hPa | 0 mm | - | - | - |
| 1777983388 | 7.22° C | 54% | 1013.4 hPa | 0 mm | - | - | - |
| 1777982876 | 7.78° C | 52% | 1013.7 hPa | 0 mm | - | - | - |
* Rain latest hour (hover to see other rain measurements)
** Current wind speed in m/s (hover to see current wind gust speed)